Estación Meteorológica Peña el Pijo (Robertgarden) [ 12/10/18 12:42:06 CET ]

Fecha Hora Presion(HPa) Temp (°C) Humedad % Rocio (°C) Viento ( m/s) Direccion Lluvia 1Hora(mm) Lluvia 24H(mm) LLuvia Total(mm)
2018-Aug-19 01:01:52 1013.500 15.8 87 13.7       2.59 293.18
2018-Aug-19 02:01:45 1013.300 15.8 88 13.8       2.59 293.18
2018-Aug-19 03:01:40 1013.300 16.1 89 14.3       2.59 293.18
2018-Aug-19 04:02:16 1013.000 16.4 89 14.6       2.59 293.18
2018-Aug-19 05:02:14 1013.400 16.1 89 14.3       2.59 293.18
2018-Aug-19 06:04:22 1013.200 16.4 90 14.8       2.59 293.18
2018-Aug-19 07:01:42 1013.100 16.4 90 14.8       2.59 293.18
2018-Aug-19 08:01:48 1013.500 16.1 90 14.5       2.59 293.18
2018-Aug-19 09:01:35 1013.700 17.6 91 16.2       2.59 293.18
2018-Aug-19 10:01:39 1014.000 19.1 90 17.4       2.59 293.18
2018-Aug-19 11:01:30 1014.000 22.5 78 18.5       2.59 293.18
2018-Aug-19 12:01:36 1014.200 25.9 59 17.3       2.59 293.18
2018-Aug-19 13:01:36 1013.900 25.1 58 16.2       2.59 293.18
2018-Aug-19 14:01:36 1013.800 27.9 52 17.1       0.51 293.18
2018-Aug-19 15:01:44 1013.400 28.6 50 17.2 1.1 S   0.51 293.18
2018-Aug-19 16:01:54 1012.900 29.0 46 16.2       0.51 293.18
2018-Aug-19 17:02:05 1012.600 29.6 49 17.8         293.18
2018-Aug-19 18:01:44 1012.700 24.4 59 15.9 3.0 N     293.18
2018-Aug-19 19:01:51 1012.600 25.4 58 16.5         293.18
2018-Aug-19 20:01:43 1012.700 23.1 63 15.6         293.18
2018-Aug-19 21:01:46 1013.000 21.3 70 15.6         293.18
2018-Aug-19 22:01:47 1013.700 19.9 75 15.3         293.18
2018-Aug-19 23:01:41 1014.100 19.0 79 15.3         293.18

Temperatura Máxima:29°    Temperatura Mínima:15°
Presión Máxima:1014.200 Hpa    Presión Mínima:1012.600 Hpa


Volver